createdAt,value
2019-01-16T00:00:26.587Z,100714.03
2019-01-16T00:03:04.585Z,100713.16
2019-01-16T00:05:52.674Z,100715.11
2019-01-16T00:08:24.688Z,100712.28
2019-01-16T00:10:56.724Z,100716.14
2019-01-16T00:13:45.016Z,100717.55
2019-01-16T00:16:19.718Z,100714.06
2019-01-16T00:18:55.317Z,100717.05
2019-01-16T00:21:30.385Z,100721.61
2019-01-16T00:24:18.675Z,100712.27
2019-01-16T00:26:50.714Z,100713.50
2019-01-16T00:29:23.020Z,100721.55
2019-01-16T00:32:00.493Z,100712.80
2019-01-16T00:34:48.857Z,100714.27
2019-01-16T00:37:23.559Z,100719.91
2019-01-16T00:40:04.732Z,100719.97
2019-01-16T00:42:39.399Z,100718.22
2019-01-16T00:45:17.837Z,100723.58
2019-01-16T00:47:52.803Z,100719.17
2019-01-16T00:50:30.551Z,100724.63
2019-01-16T00:53:11.613Z,100722.66
2019-01-16T00:55:52.815Z,100723.12
2019-01-16T00:58:41.081Z,100719.92
2019-01-16T01:01:19.316Z,100722.03
2019-01-16T01:03:51.348Z,100728.83
2019-01-16T01:06:23.376Z,100729.96
2019-01-16T01:09:11.541Z,100728.94
2019-01-16T01:11:43.558Z,100723.50
2019-01-16T01:14:15.594Z,100722.41
2019-01-16T01:17:03.910Z,100719.96
2019-01-16T01:19:44.752Z,100723.34
2019-01-16T01:22:16.773Z,100723.94
2019-01-16T01:24:51.502Z,100729.38
2019-01-16T01:27:23.527Z,100736.02
2019-01-16T01:29:55.547Z,100733.95
2019-01-16T01:32:27.568Z,100745.80
2019-01-16T01:35:15.912Z,100746.45
2019-01-16T01:37:47.930Z,100742.17
2019-01-16T01:40:32.195Z,100747.50
2019-01-16T01:43:07.194Z,100751.52
2019-01-16T01:45:45.154Z,100753.27
2019-01-16T01:48:17.197Z,100748.00
2019-01-16T01:50:49.212Z,100750.11
2019-01-16T01:53:30.432Z,100745.92
2019-01-16T01:56:17.670Z,100746.09
2019-01-16T01:59:05.169Z,100748.05
2019-01-16T02:01:37.537Z,100748.27
2019-01-16T02:04:12.881Z,100749.75
2019-01-16T02:06:44.901Z,100751.44
2019-01-16T02:09:17.010Z,100750.19
2019-01-16T02:11:52.142Z,100747.87
2019-01-16T02:14:40.600Z,100744.72
2019-01-16T02:17:24.595Z,100734.92
2019-01-16T02:19:56.634Z,100732.53
2019-01-16T02:22:28.651Z,100730.58
2019-01-16T02:25:06.681Z,100736.62
2019-01-16T02:27:41.920Z,100736.68
2019-01-16T02:30:21.921Z,100734.67
2019-01-16T02:33:10.203Z,100743.70
2019-01-16T02:35:54.200Z,100739.25
2019-01-16T02:38:26.215Z,100735.55
2019-01-16T02:41:01.023Z,100733.38
2019-01-16T02:43:33.109Z,100723.20
2019-01-16T02:46:11.435Z,100723.97
2019-01-16T02:48:56.458Z,100716.91
2019-01-16T02:51:46.687Z,100725.24
2019-01-16T02:54:18.710Z,100709.31
2019-01-16T02:56:56.314Z,100710.89
2019-01-16T02:59:28.366Z,100717.03
2019-01-16T03:02:03.035Z,100721.92
2019-01-16T03:04:35.445Z,100723.17
2019-01-16T03:07:13.138Z,100727.42
2019-01-16T03:09:51.231Z,100719.48
2019-01-16T03:12:29.001Z,100713.44
2019-01-16T03:15:03.746Z,100713.28
2019-01-16T03:17:51.931Z,100719.74
2019-01-16T03:20:23.958Z,100721.70
2019-01-16T03:23:07.974Z,100721.97
2019-01-16T03:25:39.988Z,100725.98
2019-01-16T03:28:12.019Z,100718.80
2019-01-16T03:30:50.205Z,100719.02
2019-01-16T03:33:25.254Z,100725.32
2019-01-16T03:36:00.344Z,100720.64
2019-01-16T03:38:35.476Z,100724.67
2019-01-16T03:41:07.845Z,100719.56
2019-01-16T03:43:57.915Z,100716.72
2019-01-16T03:46:41.883Z,100724.55
2019-01-16T03:49:14.094Z,100715.80
2019-01-16T03:51:46.597Z,100719.33
2019-01-16T03:54:35.291Z,100714.77
2019-01-16T03:57:07.337Z,100720.73
2019-01-16T03:59:39.442Z,100720.40
2019-01-16T04:02:23.496Z,100725.36
2019-01-16T04:04:55.565Z,100716.55
2019-01-16T04:07:39.489Z,100728.50
2019-01-16T04:10:19.708Z,100714.05
2019-01-16T04:12:54.126Z,100719.48
2019-01-16T04:15:26.158Z,100717.14
2019-01-16T04:18:09.994Z,100711.27
2019-01-16T04:20:54.222Z,100708.48
2019-01-16T04:23:26.237Z,100707.23
2019-01-16T04:26:14.674Z,100699.52
2019-01-16T04:28:46.691Z,100701.42
2019-01-16T04:31:24.654Z,100695.61
2019-01-16T04:34:05.591Z,100696.75
2019-01-16T04:36:37.616Z,100689.62
2019-01-16T04:39:10.365Z,100697.77
2019-01-16T04:42:00.676Z,100701.24
2019-01-16T04:44:41.709Z,100695.33
2019-01-16T04:47:29.358Z,100687.66
2019-01-16T04:50:01.407Z,100695.12
2019-01-16T04:52:36.366Z,100692.45
2019-01-16T04:55:11.104Z,100689.78
2019-01-16T04:57:43.135Z,100687.93
2019-01-16T05:00:24.542Z,100686.69
2019-01-16T05:03:13.068Z,100686.47
2019-01-16T05:06:00.392Z,100690.44
2019-01-16T05:08:47.350Z,100694.36
2019-01-16T05:11:35.418Z,100689.31
2019-01-16T05:14:07.441Z,100692.19
2019-01-16T05:16:51.960Z,100696.16
2019-01-16T05:19:40.367Z,100690.50
2019-01-16T05:22:12.658Z,100694.08
2019-01-16T05:24:44.751Z,100685.66
2019-01-16T05:27:20.083Z,100698.10
2019-01-16T05:30:01.778Z,100699.45
2019-01-16T05:32:36.481Z,100693.03
2019-01-16T05:35:14.428Z,100690.53
2019-01-16T05:37:46.449Z,100690.14
2019-01-16T05:40:18.848Z,100692.11
2019-01-16T05:42:50.868Z,100692.53
2019-01-16T05:45:31.821Z,100692.59
2019-01-16T05:48:15.425Z,100689.92
2019-01-16T05:50:47.466Z,100690.84
2019-01-16T05:53:22.416Z,100687.30
2019-01-16T05:56:00.143Z,100681.42
2019-01-16T05:58:32.172Z,100685.45
2019-01-16T06:01:07.170Z,100684.09
2019-01-16T06:03:39.218Z,100683.75
2019-01-16T06:06:27.477Z,100678.95
2019-01-16T06:08:59.499Z,100673.63
2019-01-16T06:11:47.915Z,100679.16
2019-01-16T06:14:19.950Z,100674.39
2019-01-16T06:16:55.154Z,100673.67
2019-01-16T06:19:27.178Z,100673.78
2019-01-16T06:22:02.111Z,100671.61
2019-01-16T06:24:34.127Z,100670.41
2019-01-16T06:27:21.404Z,100664.92
2019-01-16T06:29:53.432Z,100663.78
2019-01-16T06:32:43.706Z,100664.69
2019-01-16T06:35:15.734Z,100658.17
2019-01-16T06:37:53.496Z,100660.02
2019-01-16T06:40:25.535Z,100660.40
2019-01-16T06:42:57.571Z,100658.99
2019-01-16T06:45:30.380Z,100668.88
2019-01-16T06:48:08.213Z,100663.44
2019-01-16T06:50:43.189Z,100661.81
2019-01-16T06:53:31.657Z,100663.23
2019-01-16T06:56:21.715Z,100668.35
2019-01-16T06:58:53.749Z,100667.37
2019-01-16T07:01:42.056Z,100672.44
2019-01-16T07:04:17.082Z,100675.26
2019-01-16T07:07:05.188Z,100669.38
2019-01-16T07:09:46.840Z,100669.50
2019-01-16T07:12:35.047Z,100672.92
2019-01-16T07:15:20.576Z,100676.56
2019-01-16T07:17:52.610Z,100681.78
2019-01-16T07:20:39.675Z,100676.56
2019-01-16T07:23:17.153Z,100683.75
2019-01-16T07:26:05.210Z,100682.22
2019-01-16T07:28:43.215Z,100682.39
2019-01-16T07:31:17.903Z,100685.59
2019-01-16T07:34:01.925Z,100685.97
2019-01-16T07:36:33.955Z,100688.84
2019-01-16T07:39:26.863Z,100682.27
2019-01-16T07:41:58.886Z,100686.44
2019-01-16T07:44:31.162Z,100678.34
2019-01-16T07:47:12.041Z,100682.91
2019-01-16T07:50:02.156Z,100682.19
2019-01-16T07:52:34.188Z,100677.02
2019-01-16T07:55:25.212Z,100676.64
2019-01-16T07:58:05.961Z,100675.59
2019-01-16T08:00:43.740Z,100677.83
2019-01-16T08:03:41.396Z,100683.75
2019-01-16T08:06:19.409Z,100684.58
2019-01-16T08:09:06.748Z,100670.97
2019-01-16T08:11:41.198Z,100673.47
2019-01-16T08:14:15.905Z,100663.84
2019-01-16T08:17:04.153Z,100668.91
2019-01-16T08:19:54.512Z,100668.69
2019-01-16T08:22:29.317Z,100664.16
2019-01-16T08:25:01.338Z,100660.79
2019-01-16T08:28:01.103Z,100656.92
2019-01-16T08:30:33.121Z,100657.63
2019-01-16T08:33:21.563Z,100655.17
2019-01-16T08:36:02.553Z,100658.33
2019-01-16T08:38:40.368Z,100656.98
2019-01-16T08:41:29.035Z,100654.68
2019-01-16T08:44:16.309Z,100652.00
2019-01-16T08:46:51.002Z,100645.16
2019-01-16T08:49:39.099Z,100651.15
2019-01-16T08:52:23.271Z,100650.61
2019-01-16T08:55:04.726Z,100642.28
2019-01-16T08:57:48.877Z,100642.66
2019-01-16T09:00:26.777Z,100645.74
2019-01-16T09:03:15.240Z,100639.86
2019-01-16T09:06:03.509Z,100642.09
2019-01-16T09:08:51.676Z,100635.77
2019-01-16T09:11:39.435Z,100641.05
2019-01-16T09:14:20.413Z,100634.14
2019-01-16T09:17:08.752Z,100637.02
2019-01-16T09:19:41.067Z,100629.23
2019-01-16T09:22:19.264Z,100632.31
2019-01-16T09:24:51.315Z,100631.86
2019-01-16T09:27:27.441Z,100626.20
2019-01-16T09:30:17.991Z,100623.14
2019-01-16T09:33:02.291Z,100581.81
2019-01-16T09:35:49.846Z,100620.79
2019-01-16T09:38:37.963Z,100620.08
2019-01-16T09:41:16.141Z,100616.32
2019-01-16T09:44:04.521Z,100617.34
2019-01-16T09:46:42.503Z,100614.58
2019-01-16T09:49:23.514Z,100612.34
2019-01-16T09:51:55.542Z,100605.92
2019-01-16T09:54:43.893Z,100612.93
2019-01-16T09:57:15.932Z,100613.08
2019-01-16T09:59:47.974Z,100606.17
2019-01-16T10:02:36.440Z,100606.71
2019-01-16T10:05:26.589Z,100606.05
2019-01-16T10:07:58.621Z,100603.34
2019-01-16T10:10:42.865Z,100599.70
2019-01-16T10:13:21.033Z,100606.14
2019-01-16T10:16:09.370Z,100600.33
2019-01-16T10:18:57.506Z,100602.51
2019-01-16T10:21:45.940Z,100521.77
2019-01-16T10:24:20.890Z,100590.06
2019-01-16T10:27:01.984Z,100590.34
2019-01-16T10:29:36.976Z,100592.41
2019-01-16T10:32:27.341Z,100547.01
2019-01-16T10:35:00.477Z,100580.35
2019-01-16T10:37:32.709Z,100571.36
2019-01-16T10:40:07.861Z,100576.11
2019-01-16T10:42:54.949Z,100571.11
2019-01-16T10:45:27.021Z,100572.27
2019-01-16T10:48:16.068Z,100563.84
2019-01-16T10:50:48.327Z,100567.73
2019-01-16T10:53:23.420Z,100564.53
2019-01-16T10:56:13.752Z,100557.81
2019-01-16T10:59:02.195Z,100555.92
2019-01-16T11:01:34.219Z,100560.27
2019-01-16T11:04:22.762Z,100555.91
2019-01-16T11:07:11.212Z,100552.33
2019-01-16T11:09:59.360Z,100544.72
2019-01-16T11:12:47.737Z,100542.26
2019-01-16T11:15:35.856Z,100542.14
2019-01-16T11:18:14.079Z,100531.70
2019-01-16T11:21:01.215Z,100529.61
2019-01-16T11:23:51.492Z,100532.32
2019-01-16T11:26:26.254Z,100527.00
2019-01-16T11:29:10.114Z,100519.12
2019-01-16T11:31:42.134Z,100522.06
2019-01-16T11:34:30.568Z,100518.36
2019-01-16T11:37:02.608Z,100518.42
2019-01-16T11:39:46.369Z,100504.34
2019-01-16T11:42:34.828Z,100509.45
2019-01-16T11:45:10.092Z,100500.75
2019-01-16T11:47:42.130Z,100501.23
2019-01-16T11:50:25.910Z,100500.67
2019-01-16T11:52:58.008Z,100494.45
2019-01-16T11:55:48.018Z,100492.56
2019-01-16T11:58:20.058Z,100486.81
2019-01-16T12:01:01.111Z,100451.87
2019-01-16T12:03:39.153Z,100487.64
2019-01-16T12:06:11.180Z,100436.83
2019-01-16T12:08:49.307Z,100478.98
2019-01-16T12:11:33.414Z,100479.64
2019-01-16T12:14:05.480Z,100475.00
2019-01-16T12:16:43.182Z,100467.92
2019-01-16T12:19:15.227Z,100467.30
2019-01-16T12:21:59.497Z,100457.11
2019-01-16T12:24:43.587Z,100448.40
2019-01-16T12:27:30.897Z,100444.76
2019-01-16T12:30:12.102Z,100439.03
2019-01-16T12:32:50.192Z,100436.55
2019-01-16T12:35:38.909Z,100430.34
2019-01-16T12:38:27.924Z,100428.84
2019-01-16T12:41:02.842Z,100428.62
2019-01-16T12:43:35.250Z,100424.92
2019-01-16T12:46:13.512Z,100427.48
2019-01-16T12:48:48.996Z,100419.14
2019-01-16T12:51:22.716Z,100420.67
2019-01-16T12:53:55.787Z,100415.94
2019-01-16T12:56:39.852Z,100418.71
2019-01-16T12:59:18.123Z,100415.23
2019-01-16T13:01:55.980Z,100413.37
2019-01-16T13:04:39.792Z,100415.92
2019-01-16T13:07:11.855Z,100361.64
2019-01-16T13:09:59.102Z,100398.80
2019-01-16T13:12:37.080Z,100406.50
2019-01-16T13:15:25.838Z,100397.20
2019-01-16T13:18:00.987Z,100393.68
2019-01-16T13:20:34.139Z,100394.94
2019-01-16T13:23:06.177Z,100388.05
2019-01-16T13:25:53.895Z,100386.40
2019-01-16T13:28:41.818Z,100381.73
2019-01-16T13:31:30.383Z,100384.18
2019-01-16T13:34:02.490Z,100385.11
2019-01-16T13:36:37.489Z,100381.06
2019-01-16T13:39:19.420Z,100379.42
2019-01-16T13:42:06.783Z,100374.77
2019-01-16T13:44:51.132Z,100330.53
2019-01-16T13:47:26.225Z,100370.13
2019-01-16T13:50:04.207Z,100373.33
2019-01-16T13:52:42.301Z,100372.84
2019-01-16T13:55:14.407Z,100370.38
2019-01-16T13:57:49.284Z,100361.36
2019-01-16T14:00:36.280Z,100362.66
2019-01-16T14:03:08.603Z,100355.81
2019-01-16T14:05:49.426Z,100357.88
2019-01-16T14:08:21.449Z,100351.56
2019-01-16T14:11:01.413Z,100350.52
2019-01-16T14:13:40.582Z,100351.01
2019-01-16T14:16:15.845Z,100346.72
2019-01-16T14:18:50.649Z,100342.37
2019-01-16T14:21:40.871Z,100344.55
2019-01-16T14:24:18.791Z,100343.78
2019-01-16T14:27:05.879Z,100344.98
2019-01-16T14:29:49.734Z,100341.72
2019-01-16T14:32:29.122Z,100345.31
2019-01-16T14:35:10.322Z,100345.61
2019-01-16T14:37:42.386Z,100344.95
2019-01-16T14:40:14.446Z,100346.45
2019-01-16T14:42:46.464Z,100341.99
2019-01-16T14:45:18.517Z,100337.84
2019-01-16T14:48:05.354Z,100335.72
2019-01-16T14:50:37.644Z,100339.06
2019-01-16T14:53:19.015Z,100333.48
2019-01-16T14:55:53.928Z,100327.84
2019-01-16T14:58:35.049Z,100336.00
2019-01-16T15:01:18.850Z,100325.86
2019-01-16T15:04:09.222Z,100324.57
2019-01-16T15:06:41.260Z,100334.38
2019-01-16T15:09:29.508Z,100336.77
2019-01-16T15:12:04.213Z,100332.33
2019-01-16T15:14:48.109Z,100329.05
2019-01-16T15:17:20.208Z,100329.67
2019-01-16T15:20:08.211Z,100328.46
2019-01-16T15:22:40.254Z,100322.79
2019-01-16T15:25:12.265Z,100321.00
2019-01-16T15:27:47.006Z,100321.66
2019-01-16T15:30:22.234Z,100318.45
2019-01-16T15:33:10.429Z,100311.44
2019-01-16T15:35:58.690Z,100311.02
2019-01-16T15:38:36.482Z,100309.52
2019-01-16T15:41:23.434Z,100310.73
2019-01-16T15:44:00.865Z,100306.56
2019-01-16T15:46:41.691Z,100301.91
2019-01-16T15:49:29.477Z,100293.61
2019-01-16T15:52:19.624Z,100298.84
2019-01-16T15:54:54.581Z,100297.38
2019-01-16T15:57:41.684Z,100298.34
2019-01-16T16:00:26.634Z,100294.94
2019-01-16T16:02:58.651Z,100293.04
2019-01-16T16:05:36.584Z,100293.27
2019-01-16T16:08:20.685Z,100289.45
2019-01-16T16:10:52.746Z,100280.33
2019-01-16T16:13:24.765Z,100280.89
2019-01-16T16:15:56.801Z,100284.59
2019-01-16T16:18:31.749Z,100282.30
2019-01-16T16:21:03.775Z,100278.32
2019-01-16T16:23:35.814Z,100278.17
2019-01-16T16:26:16.980Z,100270.67
2019-01-16T16:29:00.800Z,100277.08
2019-01-16T16:31:32.864Z,100271.81
2019-01-16T16:34:04.904Z,100272.09
2019-01-16T16:36:37.006Z,100277.14
2019-01-16T16:39:12.881Z,100261.32
2019-01-16T16:41:47.817Z,100266.98
2019-01-16T16:44:20.384Z,100259.46
2019-01-16T16:46:55.299Z,100264.70
2019-01-16T16:49:43.472Z,100263.56
2019-01-16T16:52:33.716Z,100253.77
2019-01-16T16:55:22.565Z,100251.72
2019-01-16T16:58:06.478Z,100251.94
2019-01-16T17:00:38.534Z,100251.61
2019-01-16T17:03:13.343Z,100251.66
2019-01-16T17:06:00.449Z,100251.25
2019-01-16T17:08:35.204Z,100254.31
2019-01-16T17:11:13.308Z,100228.28
2019-01-16T17:13:48.908Z,100242.39
2019-01-16T17:16:19.042Z,100240.77
2019-01-16T17:19:07.458Z,100232.42
2019-01-16T17:21:42.697Z,100231.89
2019-01-16T17:24:26.863Z,100232.21
2019-01-16T17:27:04.823Z,100233.69
2019-01-16T17:29:45.535Z,100231.12
2019-01-16T17:32:33.653Z,100222.17
2019-01-16T17:35:08.879Z,100212.25
2019-01-16T17:37:44.043Z,100211.66
2019-01-16T17:40:29.887Z,100194.80
2019-01-16T17:43:07.921Z,100192.91
2019-01-16T17:45:54.659Z,100182.83
2019-01-16T17:48:32.424Z,100183.48
2019-01-16T17:51:04.536Z,100178.30
2019-01-16T17:53:42.447Z,100175.55
2019-01-16T17:56:17.202Z,100179.81
2019-01-16T17:58:57.984Z,100169.33
2019-01-16T18:01:46.344Z,100158.67
2019-01-16T18:04:18.402Z,100166.53
2019-01-16T18:06:50.437Z,100160.62
2019-01-16T18:09:31.464Z,100156.66
2019-01-16T18:12:15.357Z,100155.07
2019-01-16T18:15:03.676Z,100156.36
2019-01-16T18:17:41.691Z,100153.81
2019-01-16T18:20:17.758Z,100153.56
2019-01-16T18:22:58.836Z,100148.80
2019-01-16T18:25:39.631Z,100148.48
2019-01-16T18:28:18.896Z,100147.05
2019-01-16T18:30:53.898Z,100148.53
2019-01-16T18:33:26.401Z,100138.05
2019-01-16T18:36:07.372Z,100141.13
2019-01-16T18:38:54.481Z,100136.19
2019-01-16T18:41:42.415Z,100139.94
2019-01-16T18:44:30.645Z,100140.07
2019-01-16T18:47:02.682Z,100129.80
2019-01-16T18:49:40.405Z,100127.36
2019-01-16T18:52:12.431Z,100130.52
2019-01-16T18:54:47.366Z,100127.30
2019-01-16T18:57:34.213Z,100117.25
2019-01-16T19:00:12.621Z,100118.17
2019-01-16T19:02:44.638Z,100106.07
2019-01-16T19:05:32.528Z,100112.24
2019-01-16T19:08:20.947Z,100114.10
2019-01-16T19:11:09.117Z,100106.66
2019-01-16T19:13:43.803Z,100099.99
2019-01-16T19:16:21.347Z,100093.97
2019-01-16T19:18:56.298Z,100098.70
2019-01-16T19:21:44.268Z,100096.95
2019-01-16T19:24:22.041Z,100090.80
2019-01-16T19:26:54.077Z,100097.06
2019-01-16T19:29:38.130Z,100094.13
2019-01-16T19:32:15.954Z,100092.64
2019-01-16T19:34:50.899Z,100081.95
2019-01-16T19:37:22.944Z,100085.53
2019-01-16T19:39:57.993Z,100092.70
2019-01-16T19:42:33.100Z,100084.37
2019-01-16T19:45:17.256Z,100083.13
2019-01-16T19:48:05.202Z,100078.99
2019-01-16T19:50:40.041Z,100073.90
2019-01-16T19:53:14.816Z,100072.55
2019-01-16T19:56:02.939Z,100068.98
2019-01-16T20:00:48.449Z,100060.56
2019-01-16T20:03:40.053Z,100058.58
2019-01-16T20:06:22.625Z,100061.72
2019-01-16T20:09:04.544Z,100052.33
2019-01-16T20:11:37.856Z,100052.27
2019-01-16T20:14:10.797Z,100052.94
2019-01-16T20:17:02.159Z,100048.62
2019-01-16T20:19:37.866Z,100048.68
2019-01-16T20:22:23.137Z,100046.21
2019-01-16T20:24:59.054Z,100045.55
2019-01-16T20:27:38.165Z,100046.63
2019-01-16T20:30:17.811Z,100046.59
2019-01-16T20:32:50.764Z,100041.34
2019-01-16T20:35:26.768Z,100041.02
2019-01-16T20:38:06.214Z,100047.48
2019-01-16T20:40:47.878Z,100047.06
2019-01-16T20:43:29.826Z,100053.41
2019-01-16T20:46:02.773Z,100041.75
2019-01-16T20:48:38.419Z,100045.13
2019-01-16T20:51:17.486Z,100033.66
2019-01-16T20:53:56.620Z,100023.13
2019-01-16T20:56:29.568Z,100018.41
2019-01-16T20:59:05.387Z,100018.36
2019-01-16T21:01:47.343Z,100016.13
2019-01-16T21:04:29.046Z,100010.06
2019-01-16T21:07:02.049Z,100003.50
2019-01-16T21:09:46.851Z,100001.30
2019-01-16T21:12:36.234Z,99993.03
2019-01-16T21:15:21.639Z,99992.20
2019-01-16T21:18:06.829Z,99985.48
2019-01-16T21:20:52.205Z,99971.69
2019-01-16T21:23:43.365Z,99971.02
2019-01-16T21:26:32.669Z,99954.70
2019-01-16T21:29:14.604Z,99960.14
2019-01-16T21:31:53.499Z,99951.10
2019-01-16T21:34:32.598Z,99955.69
2019-01-16T21:37:17.476Z,99958.19
2019-01-16T21:39:59.340Z,99955.45
2019-01-16T21:42:48.856Z,99961.05
2019-01-16T21:45:38.044Z,99951.74
2019-01-16T21:48:25.960Z,99947.34
2019-01-16T21:50:58.975Z,99938.78
2019-01-16T21:53:31.919Z,99929.45
2019-01-16T21:56:21.169Z,99925.23
2019-01-16T21:58:54.194Z,99923.23
2019-01-16T22:01:33.093Z,99922.81
2019-01-16T22:04:09.596Z,99913.60
2019-01-16T22:06:48.426Z,99903.88
2019-01-16T22:09:37.558Z,99901.58
2019-01-16T22:12:13.194Z,99895.72
2019-01-16T22:14:48.790Z,99892.80
2019-01-16T22:17:24.690Z,99899.72
2019-01-16T22:20:00.591Z,99876.41
2019-01-16T22:22:39.503Z,99885.88
2019-01-16T22:25:28.775Z,99883.86
2019-01-16T22:28:01.740Z,99878.58
2019-01-16T22:30:34.668Z,99881.88
2019-01-16T22:33:07.609Z,99876.06
2019-01-16T22:35:41.223Z,99878.70
2019-01-16T22:38:26.535Z,99858.77
2019-01-16T22:41:02.164Z,99870.12
2019-01-16T22:43:35.125Z,99857.94
2019-01-16T22:46:10.858Z,99857.59
2019-01-16T22:48:43.810Z,99855.94
2019-01-16T22:51:32.900Z,99851.75
2019-01-16T22:54:05.848Z,99841.41
2019-01-16T22:56:38.781Z,99843.36
2019-01-16T22:59:27.861Z,99845.77
2019-01-16T23:02:01.170Z,99841.78
2019-01-16T23:04:50.308Z,99830.02
2019-01-16T23:07:25.901Z,99834.71
2019-01-16T23:09:58.828Z,99825.83
2019-01-16T23:12:40.575Z,99816.02
2019-01-16T23:15:19.740Z,99813.64
2019-01-16T23:17:53.154Z,99801.39
2019-01-16T23:20:43.016Z,99802.63
2019-01-16T23:23:25.090Z,99800.84
2019-01-16T23:26:10.490Z,99792.12
2019-01-16T23:28:59.587Z,99793.66
2019-01-16T23:31:35.513Z,99788.17
2019-01-16T23:34:11.787Z,99785.27
2019-01-16T23:36:53.764Z,99781.20
2019-01-16T23:39:32.959Z,99780.27
2019-01-16T23:42:22.325Z,99771.36
2019-01-16T23:44:58.665Z,99752.94
2019-01-16T23:47:50.408Z,99764.92
2019-01-16T23:50:35.262Z,99759.07
2019-01-16T23:53:08.205Z,99752.72
2019-01-16T23:55:47.137Z,99753.21
2019-01-16T23:58:36.645Z,99750.23
